Time;durP1;ratioP1;P1;durP2;ratioP2;P2;SDS_P1;SDS_P2;PMS_P1;PMS_P2;Temp;Humidity;BMP_temperature;BMP_pressure;BME280_temperature;BME280_humidity;BME280_pressure;Samples;Min_cycle;Max_cycle;Signal;HPM_P1;HPM_P2
2021/06/19 00:00:35;;;;;;;27.00;25.23;;;26.50;99.90;;;;;;5045287;28;21237;-64
2021/06/19 00:03:02;;;;;;;24.73;22.93;;;26.50;99.90;;;;;;5061088;28;20608;-64
2021/06/19 00:05:28;;;;;;;24.53;22.93;;;26.60;99.90;;;;;;5061311;28;20612;-64
2021/06/19 00:07:55;;;;;;;26.23;24.07;;;26.60;99.90;;;;;;5059258;28;20703;-62
2021/06/19 00:10:23;;;;;;;24.57;22.97;;;26.50;99.90;;;;;;5058369;28;20664;-63
2021/06/19 00:12:52;;;;;;;25.10;23.40;;;26.40;99.90;;;;;;5060078;28;20704;-62
2021/06/19 00:15:20;;;;;;;25.70;23.80;;;26.40;99.90;;;;;;5068994;28;20644;-63
2021/06/19 00:17:47;;;;;;;24.27;22.57;;;26.40;99.90;;;;;;5064278;28;20728;-62
2021/06/19 00:20:15;;;;;;;25.43;23.60;;;26.40;99.90;;;;;;5044018;28;20671;-62
2021/06/19 00:22:41;;;;;;;25.80;23.80;;;26.40;99.90;;;;;;5061818;28;21040;-64
2021/06/19 00:25:08;;;;;;;24.30;22.63;;;26.30;99.90;;;;;;5058064;28;20629;-65
2021/06/19 00:27:35;;;;;;;25.33;23.57;;;26.30;99.90;;;;;;5066230;28;20716;-63
2021/06/19 00:30:00;;;;;;;25.67;23.83;;;26.30;99.90;;;;;;5061067;28;20821;-64
2021/06/19 00:32:29;;;;;;;23.20;21.70;;;26.40;99.90;;;;;;5077543;28;20773;-63
2021/06/19 00:34:54;;;;;;;26.73;24.93;;;26.30;99.90;;;;;;5068011;28;20368;-66
2021/06/19 00:37:20;;;;;;;26.17;24.47;;;26.20;99.90;;;;;;5067368;28;20728;-66
2021/06/19 00:39:45;;;;;;;28.20;26.03;;;26.20;99.90;;;;;;5065334;28;20329;-66
2021/06/19 00:42:16;;;;;;;26.40;24.57;;;26.20;99.90;;;;;;5065693;28;20287;-67
2021/06/19 00:44:42;;;;;;;25.87;24.10;;;26.20;99.90;;;;;;5065072;28;20337;-66
2021/06/19 00:47:07;;;;;;;26.33;24.60;;;26.10;99.90;;;;;;5065967;28;21234;-67
2021/06/19 00:49:33;;;;;;;25.73;24.07;;;26.20;99.90;;;;;;5064867;28;20331;-66
2021/06/19 00:51:59;;;;;;;25.43;23.77;;;26.20;99.90;;;;;;5060296;28;22131;-67
2021/06/19 00:54:24;;;;;;;24.63;22.83;;;26.10;99.90;;;;;;5064744;28;20561;-67
2021/06/19 00:56:50;;;;;;;28.87;26.83;;;26.10;99.90;;;;;;5057792;28;20191;-66
2021/06/19 00:59:16;;;;;;;25.37;23.70;;;26.10;99.90;;;;;;5065668;28;20186;-67
2021/06/19 01:01:42;;;;;;;26.63;24.53;;;26.10;99.90;;;;;;5066552;28;20214;-66
2021/06/19 01:04:07;;;;;;;24.10;22.40;;;26.10;99.90;;;;;;5065510;28;21210;-67
2021/06/19 01:06:34;;;;;;;27.43;25.67;;;26.10;99.90;;;;;;5088437;28;20988;-68
2021/06/19 01:09:01;;;;;;;26.60;24.90;;;26.00;99.90;;;;;;5085670;28;20261;-67
2021/06/19 01:11:29;;;;;;;27.07;25.23;;;26.00;99.90;;;;;;5045124;28;21044;-66
2021/06/19 01:13:55;;;;;;;27.10;25.30;;;26.00;99.90;;;;;;5061791;28;20629;-66
2021/06/19 01:16:21;;;;;;;25.10;23.30;;;25.90;99.90;;;;;;5063334;28;20620;-68
2021/06/19 01:18:47;;;;;;;27.40;25.30;;;25.90;99.90;;;;;;5068683;28;20183;-67
2021/06/19 01:21:24;;;;;;;26.97;25.20;;;25.90;99.90;;;;;;5065213;28;20685;-67
2021/06/19 01:23:50;;;;;;;27.50;25.20;;;25.90;99.90;;;;;;5060073;28;20554;-66
2021/06/19 01:26:18;;;;;;;25.67;23.97;;;25.80;99.90;;;;;;5066819;28;20651;-66
2021/06/19 01:28:45;;;;;;;27.33;25.63;;;25.80;99.90;;;;;;5068916;28;20647;-66
2021/06/19 01:31:11;;;;;;;27.43;25.43;;;25.70;99.90;;;;;;5065897;28;20636;-67
2021/06/19 01:33:42;;;;;;;25.50;23.70;;;25.70;99.90;;;;;;5082505;28;20628;-67
2021/06/19 01:36:08;;;;;;;26.50;24.80;;;25.70;99.90;;;;;;5074108;28;20234;-67
2021/06/19 01:38:39;;;;;;;26.80;24.83;;;25.60;99.90;;;;;;5061276;28;21710;-67
2021/06/19 01:41:11;;;;;;;27.10;25.30;;;25.60;99.90;;;;;;5066268;28;20655;-66
2021/06/19 01:43:37;;;;;;;28.40;26.40;;;25.60;99.90;;;;;;5061448;28;20640;-67
2021/06/19 01:46:02;;;;;;;28.10;26.20;;;25.50;99.90;;;;;;5066347;28;21198;-67
2021/06/19 01:48:30;;;;;;;27.90;26.10;;;25.50;99.90;;;;;;5066550;28;20198;-67
2021/06/19 01:50:55;;;;;;;29.53;27.30;;;25.50;99.90;;;;;;5062224;28;20214;-66
2021/06/19 01:53:21;;;;;;;27.80;26.00;;;25.40;99.90;;;;;;5057736;28;20621;-67
2021/06/19 01:55:47;;;;;;;27.70;25.80;;;25.40;99.90;;;;;;5064912;28;20540;-66
2021/06/19 01:58:12;;;;;;;28.30;26.50;;;25.40;99.90;;;;;;5064485;28;20668;-66
2021/06/19 02:00:38;;;;;;;29.57;27.47;;;25.30;99.90;;;;;;5068657;28;20230;-66
2021/06/19 02:03:07;;;;;;;28.00;26.10;;;25.30;99.90;;;;;;5059484;28;20240;-66
2021/06/19 02:05:32;;;;;;;28.03;26.13;;;25.20;99.90;;;;;;5046588;28;20209;-66
2021/06/19 02:08:02;;;;;;;28.20;26.20;;;25.20;99.90;;;;;;5062173;28;20641;-66
2021/06/19 02:10:40;;;;;;;26.97;24.97;;;25.20;99.90;;;;;;5039728;28;20211;-67
2021/06/19 02:13:08;;;;;;;28.27;26.37;;;25.10;99.90;;;;;;5058285;28;21356;-67
2021/06/19 02:15:37;;;;;;;29.80;27.80;;;25.10;99.90;;;;;;5067465;28;20706;-67
2021/06/19 02:18:04;;;;;;;28.30;26.40;;;25.10;99.90;;;;;;5059998;28;20680;-66
2021/06/19 02:20:30;;;;;;;28.60;26.70;;;25.10;99.90;;;;;;5049511;28;20644;-67
2021/06/19 02:22:56;;;;;;;28.77;26.97;;;25.10;99.90;;;;;;5057665;28;20824;-67
2021/06/19 02:25:24;;;;;;;28.73;26.93;;;25.10;99.90;;;;;;5061239;28;20604;-66
2021/06/19 02:27:57;;;;;;;28.80;27.00;;;25.00;99.90;;;;;;5046101;28;20194;-66
2021/06/19 02:30:35;;;;;;;29.93;27.80;;;25.00;99.90;;;;;;5066390;28;20721;-66
2021/06/19 02:33:03;;;;;;;29.60;27.43;;;24.90;99.90;;;;;;5042309;28;20644;-66
2021/06/19 02:35:32;;;;;;;29.20;27.30;;;24.90;99.90;;;;;;5069760;28;20617;-66
2021/06/19 02:38:00;;;;;;;30.23;28.23;;;24.80;99.90;;;;;;5060478;28;20627;-67
2021/06/19 02:40:27;;;;;;;30.07;27.83;;;24.80;99.90;;;;;;5058743;28;20667;-66
2021/06/19 02:42:54;;;;;;;29.77;27.87;;;24.80;99.90;;;;;;5060253;28;20631;-66
2021/06/19 02:45:20;;;;;;;30.57;28.47;;;24.80;99.90;;;;;;5057786;28;20620;-66
2021/06/19 02:47:50;;;;;;;30.73;28.60;;;24.80;99.90;;;;;;5062770;28;20635;-66
2021/06/19 02:50:18;;;;;;;29.10;27.20;;;24.80;99.90;;;;;;5068771;28;20711;-66
2021/06/19 02:52:43;;;;;;;28.30;26.50;;;24.70;99.90;;;;;;5067264;28;20685;-63
2021/06/19 02:55:18;;;;;;;30.30;28.20;;;24.70;99.90;;;;;;5044018;28;20620;-66
2021/06/19 02:57:44;;;;;;;29.60;27.70;;;24.60;99.90;;;;;;5046695;28;20201;-67
2021/06/19 03:00:13;;;;;;;30.93;28.93;;;24.60;99.90;;;;;;5051948;28;20656;-68
2021/06/19 03:02:39;;;;;;;30.30;28.20;;;24.60;99.90;;;;;;5063694;28;20690;-67
2021/06/19 03:05:06;;;;;;;29.77;27.87;;;24.60;99.90;;;;;;5048297;28;21222;-67
2021/06/19 03:07:32;;;;;;;29.97;27.97;;;24.50;99.90;;;;;;5066787;28;20656;-67
2021/06/19 03:10:00;;;;;;;30.70;28.40;;;24.60;99.90;;;;;;5063170;28;21217;-67
2021/06/19 03:12:27;;;;;;;30.73;28.53;;;24.60;99.90;;;;;;5069046;28;20293;-66
2021/06/19 03:14:54;;;;;;;29.93;27.73;;;24.50;99.90;;;;;;5040772;28;20632;-67
2021/06/19 03:17:20;;;;;;;30.00;27.90;;;24.50;99.90;;;;;;5065006;28;20613;-66
2021/06/19 03:19:46;;;;;;;30.23;28.23;;;24.50;99.90;;;;;;5062066;28;21035;-67
2021/06/19 03:22:11;;;;;;;29.83;27.93;;;24.40;99.90;;;;;;5062284;28;20645;-67
2021/06/19 03:24:41;;;;;;;31.13;29.03;;;24.50;99.90;;;;;;5040192;28;20282;-66
2021/06/19 03:27:08;;;;;;;30.83;28.73;;;24.40;99.90;;;;;;5061540;28;20187;-67
2021/06/19 03:29:37;;;;;;;31.97;29.67;;;24.40;99.90;;;;;;5060992;28;20713;-67
2021/06/19 03:32:05;;;;;;;29.53;27.63;;;24.40;99.90;;;;;;5063743;28;20697;-67
2021/06/19 03:34:31;;;;;;;30.77;28.57;;;24.50;99.90;;;;;;5067432;28;20636;-67
2021/06/19 03:37:00;;;;;;;30.33;28.20;;;24.50;99.90;;;;;;5076460;28;21244;-67
2021/06/19 03:39:27;;;;;;;29.73;27.70;;;24.50;99.90;;;;;;5070537;28;20620;-67
2021/06/19 03:41:53;;;;;;;30.03;28.03;;;24.50;99.90;;;;;;5068622;28;20649;-66
2021/06/19 03:44:21;;;;;;;30.80;28.70;;;24.50;99.90;;;;;;5077953;28;21167;-66
2021/06/19 03:46:47;;;;;;;30.67;28.53;;;24.50;99.90;;;;;;5080053;28;20822;-66
2021/06/19 03:49:13;;;;;;;30.50;28.40;;;24.50;99.90;;;;;;5066178;28;20739;-67
2021/06/19 03:51:39;;;;;;;30.17;28.03;;;24.60;99.90;;;;;;5077148;28;21596;-66
2021/06/19 03:54:04;;;;;;;30.40;28.30;;;24.60;99.90;;;;;;5055957;28;20257;-67
2021/06/19 03:56:31;;;;;;;30.83;28.73;;;24.60;99.90;;;;;;5072987;28;20259;-67
2021/06/19 03:58:57;;;;;;;31.13;28.97;;;24.60;99.90;;;;;;5070769;28;20505;-67
2021/06/19 04:01:22;;;;;;;32.97;30.67;;;24.60;99.90;;;;;;5068219;28;20655;-68
2021/06/19 04:03:48;;;;;;;32.83;30.57;;;24.70;99.90;;;;;;5072263;28;20222;-66
2021/06/19 04:06:16;;;;;;;34.10;31.80;;;24.70;99.90;;;;;;5069629;28;20291;-67
2021/06/19 04:08:42;;;;;;;34.33;32.00;;;24.80;99.90;;;;;;5082885;28;20249;-67
2021/06/19 04:11:07;;;;;;;34.47;32.17;;;24.80;99.90;;;;;;5069046;28;20755;-67
2021/06/19 04:13:33;;;;;;;34.13;31.60;;;24.90;99.90;;;;;;5066995;28;20309;-67
2021/06/19 04:15:59;;;;;;;36.00;33.30;;;24.90;99.90;;;;;;5050568;28;20183;-66
2021/06/19 04:18:24;;;;;;;37.07;34.30;;;25.00;99.90;;;;;;5068813;28;20261;-67
2021/06/19 04:20:50;;;;;;;34.60;32.23;;;25.00;99.90;;;;;;5066676;28;20218;-67
2021/06/19 04:23:15;;;;;;;35.90;33.40;;;25.00;99.90;;;;;;5073695;28;20666;-66
2021/06/19 04:25:41;;;;;;;34.63;32.03;;;25.10;99.90;;;;;;5068312;28;20226;-67
2021/06/19 04:28:07;;;;;;;35.30;32.80;;;25.10;99.90;;;;;;5069347;28;20195;-67
2021/06/19 04:30:33;;;;;;;34.03;31.47;;;25.10;99.90;;;;;;5066853;28;20223;-67
2021/06/19 04:32:59;;;;;;;33.80;31.47;;;25.10;99.90;;;;;;5071622;28;20198;-66
2021/06/19 04:35:26;;;;;;;35.43;32.47;;;25.10;99.90;;;;;;5074117;28;20703;-67
2021/06/19 04:37:53;;;;;;;37.87;35.17;;;25.10;99.90;;;;;;5072311;28;20620;-68
2021/06/19 04:40:30;;;;;;;38.13;35.40;;;25.20;99.90;;;;;;5066969;28;20660;-66
2021/06/19 04:42:57;;;;;;;38.67;35.87;;;25.30;99.90;;;;;;5066162;28;20616;-67
2021/06/19 04:45:25;;;;;;;37.37;34.80;;;25.30;99.90;;;;;;5066566;28;20727;-66
2021/06/19 04:47:50;;;;;;;38.30;35.70;;;25.30;99.90;;;;;;5066978;28;20621;-67
2021/06/19 04:50:16;;;;;;;38.60;35.80;;;25.30;99.90;;;;;;5068509;28;20664;-67
2021/06/19 04:52:43;;;;;;;41.17;38.00;;;25.40;99.90;;;;;;5064676;28;20266;-66
2021/06/19 04:55:17;;;;;;;39.73;36.93;;;25.40;99.90;;;;;;5064570;28;20222;-67
2021/06/19 04:57:44;;;;;;;41.57;38.30;;;25.40;99.90;;;;;;5064967;28;20700;-67
2021/06/19 05:00:12;;;;;;;41.53;38.50;;;25.40;99.90;;;;;;5068173;28;20747;-67
2021/06/19 05:02:38;;;;;;;40.57;37.60;;;25.40;99.90;;;;;;5067558;28;20674;-67
2021/06/19 05:05:04;;;;;;;35.70;33.13;;;25.40;99.90;;;;;;5064736;28;20629;-69
2021/06/19 05:07:33;;;;;;;42.47;39.37;;;25.50;99.90;;;;;;5061872;28;20639;-67
2021/06/19 05:09:58;;;;;;;43.10;40.00;;;25.50;99.90;;;;;;5068108;28;20663;-67
2021/06/19 05:12:24;;;;;;;42.10;38.83;;;25.50;99.90;;;;;;5066107;28;21160;-66
2021/06/19 05:14:49;;;;;;;40.17;37.27;;;25.50;99.90;;;;;;5066971;28;20251;-67
2021/06/19 05:17:15;;;;;;;39.77;36.53;;;25.60;99.90;;;;;;5047174;28;20719;-67
2021/06/19 05:19:41;;;;;;;38.27;35.67;;;25.60;99.90;;;;;;5061062;28;20198;-67
2021/06/19 05:22:06;;;;;;;37.50;34.87;;;25.60;99.90;;;;;;5060850;28;20217;-67
2021/06/19 05:24:33;;;;;;;39.00;36.20;;;25.70;99.90;;;;;;5060021;28;20237;-66
2021/06/19 05:26:59;;;;;;;37.27;34.37;;;25.70;99.90;;;;;;5059816;28;20274;-68
2021/06/19 05:29:25;;;;;;;37.93;34.83;;;25.80;99.90;;;;;;5061574;28;20647;-67
2021/06/19 05:31:50;;;;;;;36.80;33.90;;;25.80;99.90;;;;;;5063772;28;20217;-67
2021/06/19 05:34:16;;;;;;;34.90;32.30;;;25.90;99.90;;;;;;5071340;28;20219;-67
2021/06/19 05:36:41;;;;;;;35.27;32.53;;;25.90;99.90;;;;;;5060477;28;20619;-67
2021/06/19 05:39:07;;;;;;;32.90;30.60;;;25.80;99.90;;;;;;5052090;28;20187;-67
2021/06/19 05:41:33;;;;;;;33.57;31.10;;;25.90;99.90;;;;;;5054022;28;20242;-65
2021/06/19 05:44:02;;;;;;;30.90;28.60;;;25.90;99.90;;;;;;5058070;28;20736;-65
2021/06/19 05:46:28;;;;;;;33.73;31.27;;;26.00;99.90;;;;;;5061395;28;20252;-66
2021/06/19 05:48:57;;;;;;;32.70;30.30;;;26.00;99.90;;;;;;5060587;28;21327;-66
2021/06/19 05:51:23;;;;;;;32.97;30.53;;;26.10;99.90;;;;;;5061338;28;20222;-65
2021/06/19 05:53:49;;;;;;;32.20;29.90;;;26.20;99.90;;;;;;5065084;28;20828;-66
2021/06/19 05:56:14;;;;;;;30.50;28.20;;;26.20;99.90;;;;;;5041181;28;21319;-65
2021/06/19 05:58:40;;;;;;;31.60;29.30;;;26.30;99.90;;;;;;5054077;28;20492;-67
2021/06/19 06:01:05;;;;;;;29.20;27.07;;;26.30;99.90;;;;;;5067401;28;20745;-68
2021/06/19 06:03:31;;;;;;;29.07;26.93;;;26.30;99.90;;;;;;5055397;28;20389;-68
2021/06/19 06:05:56;;;;;;;30.40;28.17;;;26.40;99.90;;;;;;5054575;28;20637;-68
2021/06/19 06:08:22;;;;;;;29.77;27.67;;;26.40;99.90;;;;;;5044524;28;20183;-66
2021/06/19 06:10:47;;;;;;;30.30;27.80;;;26.50;99.90;;;;;;5061388;28;20243;-67
2021/06/19 06:13:13;;;;;;;29.67;27.47;;;26.50;99.90;;;;;;5043158;28;20219;-65
2021/06/19 06:15:39;;;;;;;28.20;25.87;;;26.50;99.90;;;;;;5052035;28;20210;-66
2021/06/19 06:18:05;;;;;;;28.93;26.63;;;26.50;99.90;;;;;;5074877;28;20187;-66
2021/06/19 06:20:30;;;;;;;30.63;28.33;;;26.50;99.90;;;;;;5065046;28;20844;-67
2021/06/19 06:22:56;;;;;;;31.17;28.97;;;26.50;99.90;;;;;;5066820;28;20715;-66
2021/06/19 06:25:21;;;;;;;31.37;28.97;;;26.50;99.90;;;;;;5068751;28;20198;-66
2021/06/19 06:27:47;;;;;;;28.90;26.90;;;26.60;99.90;;;;;;5080774;28;20726;-66
2021/06/19 06:30:13;;;;;;;29.23;27.13;;;26.50;99.90;;;;;;5064155;28;20412;-66
2021/06/19 06:32:39;;;;;;;28.20;26.27;;;26.60;99.90;;;;;;5047297;28;20194;-66
2021/06/19 06:35:07;;;;;;;27.87;25.87;;;26.50;99.90;;;;;;5048351;28;20636;-66
2021/06/19 06:37:33;;;;;;;27.50;25.33;;;26.60;99.90;;;;;;5046823;28;20207;-65
2021/06/19 06:39:59;;;;;;;26.60;24.47;;;26.60;99.90;;;;;;5061993;28;20675;-65
2021/06/19 06:42:24;;;;;;;26.13;24.23;;;26.70;99.90;;;;;;5063966;28;20198;-65
2021/06/19 06:44:50;;;;;;;24.57;22.67;;;26.70;99.90;;;;;;5055615;28;20234;-65
2021/06/19 06:47:15;;;;;;;23.23;21.43;;;26.70;99.90;;;;;;5062350;28;20286;-67
2021/06/19 06:49:41;;;;;;;23.60;21.50;;;26.70;99.90;;;;;;5057646;28;20324;-65
2021/06/19 06:52:07;;;;;;;20.40;19.00;;;26.80;99.90;;;;;;5072624;28;20211;-64
2021/06/19 06:54:38;;;;;;;19.60;17.80;;;26.80;99.90;;;;;;5073082;28;20250;-67
2021/06/19 06:57:06;;;;;;;17.23;15.73;;;26.90;99.90;;;;;;5042689;28;20347;-66
2021/06/19 06:59:32;;;;;;;17.60;16.03;;;26.90;99.90;;;;;;5042264;28;20979;-65
2021/06/19 07:01:58;;;;;;;16.73;15.40;;;26.90;99.90;;;;;;5063298;28;20655;-66
2021/06/19 07:04:23;;;;;;;15.47;14.10;;;27.00;99.90;;;;;;5061706;28;20235;-66
2021/06/19 07:06:49;;;;;;;14.57;13.47;;;27.10;99.90;;;;;;5057930;28;20678;-66
2021/06/19 07:09:15;;;;;;;13.20;12.20;;;27.20;99.90;;;;;;5056726;28;20198;-65
2021/06/19 07:11:40;;;;;;;14.17;13.10;;;27.30;99.90;;;;;;5061300;28;20947;-66
2021/06/19 07:14:06;;;;;;;13.20;12.20;;;27.30;99.90;;;;;;5067662;28;20242;-67
2021/06/19 07:16:32;;;;;;;13.90;12.90;;;27.50;99.90;;;;;;5066495;28;20521;-67
2021/06/19 07:18:59;;;;;;;14.13;12.80;;;27.50;99.90;;;;;;5071058;28;20186;-67
2021/06/19 07:21:25;;;;;;;14.80;13.47;;;27.50;99.90;;;;;;5068742;28;20307;-66
2021/06/19 07:23:51;;;;;;;12.73;11.73;;;27.60;99.90;;;;;;5073647;28;20643;-66
2021/06/19 07:26:16;;;;;;;12.07;11.17;;;27.60;99.90;;;;;;5080598;28;20617;-66
2021/06/19 07:28:44;;;;;;;13.50;12.40;;;27.60;99.90;;;;;;5081817;28;20634;-66
2021/06/19 07:31:09;;;;;;;13.00;12.00;;;27.70;99.90;;;;;;5069401;28;20199;-66
2021/06/19 07:33:35;;;;;;;12.67;11.40;;;27.70;99.90;;;;;;5075867;28;20629;-67
2021/06/19 07:36:00;;;;;;;12.23;11.33;;;27.80;99.90;;;;;;5079751;28;21003;-66
2021/06/19 07:38:29;;;;;;;12.93;11.83;;;27.90;99.90;;;;;;5079443;28;20197;-67
2021/06/19 07:40:54;;;;;;;12.10;11.10;;;27.90;99.90;;;;;;5078304;28;20202;-66
2021/06/19 07:43:20;;;;;;;10.60;9.70;;;27.90;99.90;;;;;;5174266;22;20685;-67
2021/06/19 07:45:45;;;;;;;10.97;10.07;;;28.00;99.90;;;;;;5066018;28;20532;-68
2021/06/19 07:48:11;;;;;;;10.70;9.53;;;28.00;99.90;;;;;;5071826;28;20198;-67
2021/06/19 07:50:38;;;;;;;9.10;8.40;;;28.00;99.90;;;;;;5065828;28;20689;-66
2021/06/19 07:53:04;;;;;;;9.40;8.60;;;28.00;99.90;;;;;;5046618;28;20776;-66
2021/06/19 07:55:30;;;;;;;9.00;8.17;;;27.90;99.90;;;;;;5037080;28;20606;-66
2021/06/19 07:57:56;;;;;;;8.03;7.50;;;28.00;99.90;;;;;;5036122;28;20297;-67
2021/06/19 08:00:21;;;;;;;7.43;6.83;;;27.80;99.90;;;;;;5032237;28;22128;-67
2021/06/19 08:02:48;;;;;;;6.70;6.10;;;27.90;99.90;;;;;;5035323;28;20215;-66
2021/06/19 08:05:14;;;;;;;7.20;6.63;;;28.00;99.90;;;;;;5030017;28;20214;-67
2021/06/19 08:07:40;;;;;;;5.83;5.50;;;28.00;99.90;;;;;;5040225;28;20622;-67
2021/06/19 08:10:06;;;;;;;6.23;5.83;;;28.00;99.90;;;;;;5038423;28;20277;-67
2021/06/19 08:12:32;;;;;;;5.80;5.40;;;28.00;99.90;;;;;;5036168;28;20611;-66
2021/06/19 08:14:58;;;;;;;5.67;5.10;;;28.00;99.90;;;;;;5031583;28;20627;-66
2021/06/19 08:17:25;;;;;;;6.80;4.67;;;28.10;99.90;;;;;;5033497;28;20288;-66
2021/06/19 08:19:51;;;;;;;5.20;4.90;;;28.10;99.90;;;;;;5037032;28;20680;-66
2021/06/19 08:22:16;;;;;;;4.73;4.37;;;28.10;99.90;;;;;;5035379;28;20691;-66
2021/06/19 08:24:43;;;;;;;5.10;4.70;;;28.10;99.90;;;;;;5031863;28;21055;-66
2021/06/19 08:27:09;;;;;;;4.93;4.60;;;28.10;99.90;;;;;;5036814;28;20668;-66
2021/06/19 08:29:35;;;;;;;4.73;4.37;;;28.20;99.90;;;;;;5038209;28;20757;-66
2021/06/19 08:32:01;;;;;;;4.80;4.50;;;28.30;99.90;;;;;;5039913;28;20209;-67
2021/06/19 08:34:26;;;;;;;4.47;4.17;;;28.30;99.90;;;;;;5036146;28;21193;-67
2021/06/19 08:36:55;;;;;;;4.47;3.73;;;28.40;99.90;;;;;;5044256;28;20598;-70
2021/06/19 08:39:20;;;;;;;3.97;3.77;;;28.40;99.90;;;;;;5044815;28;20267;-66
2021/06/19 08:41:48;;;;;;;3.90;3.60;;;28.50;99.90;;;;;;5043303;28;20646;-66
2021/06/19 08:44:25;;;;;;;4.23;3.83;;;28.50;99.90;;;;;;5034629;28;20228;-65
2021/06/19 08:46:52;;;;;;;4.43;4.07;;;28.50;99.90;;;;;;5032856;28;20866;-66
2021/06/19 08:49:19;;;;;;;3.70;3.40;;;28.50;99.90;;;;;;5029561;28;20723;-66
2021/06/19 08:51:46;;;;;;;3.90;3.60;;;28.50;99.90;;;;;;5027421;28;20699;-66
2021/06/19 08:54:13;;;;;;;2.73;2.60;;;28.60;99.90;;;;;;5036618;28;20693;-66
2021/06/19 08:56:40;;;;;;;3.20;3.00;;;28.70;99.90;;;;;;5035418;28;20603;-66
2021/06/19 08:59:06;;;;;;;3.70;3.40;;;28.80;99.90;;;;;;5038997;28;20610;-66
2021/06/19 09:01:31;;;;;;;3.50;3.20;;;28.80;99.90;;;;;;5038388;28;20700;-66
2021/06/19 09:03:57;;;;;;;3.63;3.30;;;28.90;99.90;;;;;;5030997;28;20226;-67
2021/06/19 09:06:27;;;;;;;4.10;3.80;;;28.80;99.90;;;;;;5053702;28;20184;-67
2021/06/19 09:09:14;;;;;;;4.10;2.93;;;28.90;99.90;;;;;;5056651;28;20207;-66
2021/06/19 09:11:50;;;;;;;4.13;3.53;;;29.00;99.90;;;;;;5059325;28;20649;-66
2021/06/19 09:14:27;;;;;;;3.83;3.40;;;28.90;99.90;;;;;;5034198;28;20717;-66
2021/06/19 09:16:58;;;;;;;3.30;3.10;;;28.90;99.90;;;;;;5056423;28;20605;-66
2021/06/19 09:19:30;;;;;;;4.30;4.00;;;28.90;99.90;;;;;;5045620;28;20621;-66
2021/06/19 09:22:22;;;;;;;4.20;3.90;;;29.10;99.90;;;;;;5046293;28;20645;-67
2021/06/19 09:24:57;;;;;;;4.47;4.17;;;29.00;99.90;;;;;;5058100;28;20736;-67
2021/06/19 09:27:47;;;;;;;5.20;4.43;;;28.90;99.90;;;;;;5041527;28;21037;-67
2021/06/19 09:30:21;;;;;;;5.10;4.70;;;29.00;99.90;;;;;;5052818;28;20653;-68
2021/06/19 09:32:57;;;;;;;4.73;4.43;;;28.80;99.90;;;;;;5057512;28;20987;-67
2021/06/19 09:35:29;;;;;;;4.47;4.17;;;28.80;99.90;;;;;;5057372;28;20716;-68
2021/06/19 09:38:00;;;;;;;4.33;4.03;;;28.80;99.90;;;;;;5057465;28;20709;-68
2021/06/19 09:40:41;;;;;;;4.50;4.10;;;28.70;99.90;;;;;;5049985;28;21181;-68
2021/06/19 09:43:23;;;;;;;3.80;3.50;;;28.70;99.90;;;;;;5053503;28;20684;-68
2021/06/19 09:46:12;;;;;;;3.90;3.53;;;28.70;99.90;;;;;;5039988;28;20683;-68
2021/06/19 09:48:46;;;;;;;4.67;3.93;;;28.70;99.90;;;;;;5033345;28;21179;-68
2021/06/19 09:51:25;;;;;;;4.23;3.93;;;28.80;99.90;;;;;;5055414;28;21447;-68
2021/06/19 09:53:53;;;;;;;4.43;4.03;;;28.80;99.90;;;;;;5052469;28;20640;-68
2021/06/19 09:56:21;;;;;;;4.50;4.30;;;28.80;99.90;;;;;;5034897;28;21547;-68
2021/06/19 09:58:49;;;;;;;4.90;4.60;;;28.80;99.90;;;;;;5033147;28;21841;-68
2021/06/19 10:01:20;;;;;;;5.03;4.60;;;28.80;99.90;;;;;;5056405;28;20644;-68
2021/06/19 10:04:04;;;;;;;4.70;4.40;;;28.90;99.90;;;;;;5059401;28;20626;-68
2021/06/19 10:06:31;;;;;;;4.83;4.53;;;28.80;99.90;;;;;;5065763;28;21263;-68
2021/06/19 10:08:58;;;;;;;6.00;5.50;;;28.80;99.90;;;;;;5072101;28;20641;-67
2021/06/19 10:11:26;;;;;;;5.67;5.17;;;28.60;99.90;;;;;;5048564;28;20653;-69
2021/06/19 10:13:57;;;;;;;5.13;4.80;;;28.50;99.90;;;;;;5056820;28;20643;-67
2021/06/19 10:16:30;;;;;;;5.40;5.00;;;28.50;99.90;;;;;;5054182;28;20705;-66
2021/06/19 10:18:56;;;;;;;5.33;4.87;;;28.50;99.90;;;;;;5055959;28;20617;-66
2021/06/19 10:21:24;;;;;;;5.37;4.97;;;28.50;99.90;;;;;;5055571;28;21333;-66
2021/06/19 10:23:52;;;;;;;4.80;4.60;;;28.40;99.90;;;;;;5054880;28;21208;-66
2021/06/19 10:26:24;;;;;;;4.23;4.03;;;28.50;99.90;;;;;;5050944;28;20919;-66
2021/06/19 10:28:54;;;;;;;4.90;4.57;;;28.50;99.90;;;;;;5060015;28;20627;-67
2021/06/19 10:31:20;;;;;;;4.57;4.23;;;28.60;99.90;;;;;;5054929;28;20698;-66
2021/06/19 10:33:46;;;;;;;4.60;4.30;;;28.60;99.90;;;;;;5056506;28;20641;-67
2021/06/19 10:36:15;;;;;;;4.90;4.50;;;28.60;99.90;;;;;;5054420;28;20644;-67
2021/06/19 10:38:52;;;;;;;5.00;4.70;;;28.70;99.90;;;;;;5055689;28;21015;-72
2021/06/19 10:41:20;;;;;;;5.10;4.80;;;28.80;99.90;;;;;;5056950;28;20649;-67
2021/06/19 10:43:48;;;;;;;4.63;4.43;;;28.70;99.90;;;;;;5061188;28;20637;-67
2021/06/19 10:46:42;;;;;;;4.43;4.23;;;28.80;99.90;;;;;;5056160;28;20744;-68
2021/06/19 10:49:20;;;;;;;4.43;4.13;;;28.90;99.90;;;;;;5012021;28;20673;-69
2021/06/19 10:51:46;;;;;;;5.07;4.67;;;28.90;99.90;;;;;;5059469;28;21446;-68
2021/06/19 10:54:21;;;;;;;4.77;4.37;;;29.00;99.90;;;;;;5057103;28;20661;-67
2021/06/19 10:56:50;;;;;;;4.40;4.10;;;29.10;99.90;;;;;;5057321;28;20697;-68
2021/06/19 10:59:36;;;;;;;4.90;4.50;;;29.10;99.90;;;;;;5049426;28;20706;-70
2021/06/19 11:02:03;;;;;;;4.07;3.87;;;29.00;99.90;;;;;;5052895;28;20649;-67
2021/06/19 11:04:44;;;;;;;4.13;3.73;;;29.10;99.90;;;;;;5035628;28;20837;-68
2021/06/19 11:07:19;;;;;;;11.93;4.17;;;29.20;99.90;;;;;;5043621;28;20663;-68
2021/06/19 11:09:48;;;;;;;4.20;4.00;;;29.40;99.90;;;;;;5052525;28;21625;-67
2021/06/19 11:12:22;;;;;;;4.17;3.87;;;29.40;99.90;;;;;;5053061;28;20787;-66
2021/06/19 11:15:02;;;;;;;4.30;4.10;;;29.50;99.90;;;;;;5052429;28;20637;-67
2021/06/19 11:17:33;;;;;;;4.20;3.90;;;29.60;99.90;;;;;;5053015;28;22217;-67
2021/06/19 11:20:15;;;;;;;3.93;3.50;;;29.60;99.90;;;;;;5041783;28;20758;-68
2021/06/19 11:22:53;;;;;;;3.80;3.50;;;29.70;99.90;;;;;;5040704;28;20632;-67
2021/06/19 11:26:12;;;;;;;7.33;4.57;;;29.80;99.90;;;;;;5052987;28;21307;-68
2021/06/19 11:28:19;;;;;;;3.87;3.57;;;29.80;99.90;;;;;;5033148;28;20683;-67
2021/06/19 11:30:48;;;;;;;3.73;3.47;;;29.90;99.90;;;;;;5042026;28;20661;-67
2021/06/19 11:33:17;;;;;;;3.83;3.53;;;29.90;99.90;;;;;;5041392;28;20709;-67
2021/06/19 11:35:45;;;;;;;3.87;3.50;;;30.00;99.90;;;;;;5048130;28;20622;-66
2021/06/19 11:38:10;;;;;;;5.17;3.93;;;29.90;99.90;;;;;;5048732;28;20755;-66
2021/06/19 11:40:37;;;;;;;4.93;3.40;;;30.00;99.90;;;;;;5046093;28;20660;-66
2021/06/19 11:43:07;;;;;;;3.73;3.23;;;30.20;99.90;;;;;;5042298;28;20927;-67
2021/06/19 11:45:34;;;;;;;3.60;3.40;;;30.20;99.90;;;;;;5040204;28;20705;-66
2021/06/19 11:48:02;;;;;;;3.60;3.30;;;30.30;99.90;;;;;;5016502;28;20729;-67
2021/06/19 11:50:32;;;;;;;3.70;3.37;;;30.40;99.90;;;;;;5047255;28;20678;-67
2021/06/19 11:53:27;;;;;;;4.13;3.83;;;30.40;99.90;;;;;;5040559;28;20641;-67
2021/06/19 11:56:11;;;;;;;3.43;3.23;;;30.40;99.90;;;;;;5039971;28;20675;-66
2021/06/19 11:58:58;;;;;;;3.97;3.63;;;30.50;99.90;;;;;;5043766;28;20617;-66
2021/06/19 12:01:31;;;;;;;3.90;3.70;;;30.70;99.90;;;;;;5037308;28;20661;-67
2021/06/19 12:04:00;;;;;;;3.30;3.10;;;30.70;99.90;;;;;;5030771;28;20640;-67
2021/06/19 12:06:37;;;;;;;3.57;3.27;;;30.80;99.90;;;;;;5034596;28;20621;-67
2021/06/19 12:09:04;;;;;;;3.80;3.50;;;30.90;99.90;;;;;;5024528;28;20755;-66
2021/06/19 12:11:32;;;;;;;3.70;3.50;;;31.00;99.90;;;;;;5055001;28;20644;-66
2021/06/19 12:13:59;;;;;;;4.73;3.67;;;31.00;99.90;;;;;;5053257;28;20630;-66
2021/06/19 12:16:32;;;;;;;4.07;3.77;;;31.00;99.90;;;;;;5048710;28;20628;-67
2021/06/19 12:19:03;;;;;;;3.80;3.50;;;31.10;99.90;;;;;;5045859;28;21273;-67
2021/06/19 12:21:36;;;;;;;3.43;3.10;;;31.10;99.90;;;;;;5044258;28;20717;-66
2021/06/19 12:24:17;;;;;;;3.73;3.53;;;31.20;99.90;;;;;;5011665;28;22642;-67
2021/06/19 12:26:55;;;;;;;3.17;3.03;;;31.30;99.90;;;;;;5045283;28;20640;-66
2021/06/19 12:29:39;;;;;;;3.33;3.13;;;31.40;99.90;;;;;;5046189;28;20741;-67
2021/06/19 12:32:25;;;;;;;3.50;3.20;;;31.50;99.90;;;;;;5050062;28;20694;-67
2021/06/19 12:34:52;;;;;;;3.60;3.40;;;31.50;99.90;;;;;;5044939;28;20672;-67
2021/06/19 12:37:27;;;;;;;3.20;3.10;;;31.60;99.90;;;;;;5047222;28;20931;-67
2021/06/19 12:39:53;;;;;;;3.53;3.33;;;31.60;99.90;;;;;;5055784;28;20644;-67